createdAt,value
2018-06-13T00:01:59.864Z,17.70
2018-06-13T00:04:35.849Z,17.70
2018-06-13T00:07:11.431Z,17.60
2018-06-13T00:09:48.689Z,17.60
2018-06-13T00:12:24.616Z,17.60
2018-06-13T00:15:01.188Z,17.60
2018-06-13T00:17:37.096Z,17.50
2018-06-13T00:20:13.448Z,17.50
2018-06-13T00:22:50.320Z,17.50
2018-06-13T00:25:27.005Z,17.50
2018-06-13T00:28:02.669Z,17.40
2018-06-13T00:30:40.061Z,17.40
2018-06-13T00:33:15.857Z,17.40
2018-06-13T00:35:51.772Z,17.30
2018-06-13T00:38:28.631Z,17.40
2018-06-13T00:41:07.023Z,17.40
2018-06-13T00:43:43.269Z,17.30
2018-06-13T00:46:19.917Z,17.40
2018-06-13T00:48:57.132Z,17.30
2018-06-13T00:51:34.403Z,17.30
2018-06-13T00:54:10.628Z,17.40
2018-06-13T00:56:47.150Z,17.30
2018-06-13T00:59:25.412Z,17.30
2018-06-13T01:02:01.701Z,17.20
2018-06-13T01:04:38.033Z,17.20
2018-06-13T01:07:15.168Z,17.20
2018-06-13T01:09:51.307Z,17.20
2018-06-13T01:12:27.866Z,17.10
2018-06-13T01:15:07.645Z,17.10
2018-06-13T01:17:44.489Z,17.10
2018-06-13T01:20:21.657Z,17.10
2018-06-13T01:22:59.143Z,17.00
2018-06-13T01:25:37.343Z,17.10
2018-06-13T01:28:13.949Z,17.00
2018-06-13T01:30:50.997Z,17.10
2018-06-13T01:36:04.311Z,17.00
2018-06-13T01:38:41.877Z,17.00
2018-06-13T01:41:20.884Z,17.00
2018-06-13T01:43:56.771Z,17.00
2018-06-13T01:46:34.669Z,17.00
2018-06-13T01:49:11.333Z,17.20
2018-06-13T01:51:48.447Z,17.00
2018-06-13T01:54:25.736Z,17.00
2018-06-13T01:57:01.394Z,17.00
2018-06-13T01:59:37.479Z,16.90
2018-06-13T02:02:14.636Z,16.90
2018-06-13T02:04:50.591Z,16.90
2018-06-13T02:07:26.526Z,17.00
2018-06-13T02:10:05.461Z,17.00
2018-06-13T02:12:41.601Z,17.00
2018-06-13T02:15:17.772Z,17.00
2018-06-13T02:17:55.261Z,16.90
2018-06-13T02:20:31.949Z,16.90
2018-06-13T02:23:08.395Z,16.80
2018-06-13T02:25:44.633Z,16.80
2018-06-13T02:28:20.517Z,16.70
2018-06-13T02:30:56.822Z,16.80
2018-06-13T02:33:33.969Z,16.80
2018-06-13T02:36:10.606Z,16.80
2018-06-13T02:38:46.422Z,16.70
2018-06-13T02:41:23.330Z,16.70
2018-06-13T02:43:59.293Z,16.80
2018-06-13T02:46:35.595Z,16.70
2018-06-13T02:49:12.441Z,16.70
2018-06-13T02:51:49.962Z,16.60
2018-06-13T02:54:27.237Z,16.60
2018-06-13T02:57:04.009Z,16.60
2018-06-13T03:02:16.497Z,16.60
2018-06-13T03:04:53.674Z,16.60
2018-06-13T03:07:31.166Z,16.60
2018-06-13T03:10:07.561Z,16.60
2018-06-13T03:12:43.620Z,16.60
2018-06-13T03:15:19.669Z,16.60
2018-06-13T03:17:55.940Z,16.60
2018-06-13T03:20:32.545Z,16.50
2018-06-13T03:23:09.728Z,16.40
2018-06-13T03:25:46.708Z,16.40
2018-06-13T03:28:22.979Z,16.40
2018-06-13T03:30:59.018Z,16.40
2018-06-13T03:33:35.165Z,16.40
2018-06-13T03:36:11.317Z,16.30
2018-06-13T03:38:48.570Z,16.20
2018-06-13T03:41:26.144Z,16.20
2018-06-13T03:44:01.895Z,16.30
2018-06-13T03:46:38.512Z,16.40
2018-06-13T03:49:16.077Z,16.50
2018-06-13T03:51:53.132Z,16.40
2018-06-13T03:54:29.408Z,16.30
2018-06-13T03:57:06.975Z,16.30
2018-06-13T03:59:43.290Z,16.40
2018-06-13T04:02:21.854Z,16.30
2018-06-13T04:04:59.287Z,16.30
2018-06-13T04:07:35.613Z,16.40
2018-06-13T04:10:12.322Z,16.40
2018-06-13T04:12:48.650Z,16.40
2018-06-13T04:15:25.453Z,16.30
2018-06-13T04:18:02.944Z,16.40
2018-06-13T04:20:40.183Z,16.30
2018-06-13T04:23:17.289Z,16.20
2018-06-13T04:25:54.540Z,16.20
2018-06-13T04:28:30.767Z,16.20
2018-06-13T04:31:06.608Z,16.10
2018-06-13T04:33:43.697Z,16.20
2018-06-13T04:36:21.672Z,16.20
2018-06-13T04:38:57.900Z,16.30
2018-06-13T04:41:35.216Z,16.30
2018-06-13T04:44:11.315Z,16.30
2018-06-13T04:46:49.585Z,16.30
2018-06-13T04:49:25.265Z,16.40
2018-06-13T04:52:02.709Z,16.30
2018-06-13T04:54:38.978Z,16.20
2018-06-13T04:57:16.862Z,16.20
2018-06-13T04:59:52.801Z,16.00
2018-06-13T05:02:29.269Z,16.00
2018-06-13T05:05:05.267Z,15.90
2018-06-13T05:07:41.291Z,15.80
2018-06-13T05:10:17.553Z,15.80
2018-06-13T05:12:53.490Z,15.70
2018-06-13T05:15:30.692Z,15.70
2018-06-13T05:18:06.665Z,15.60
2018-06-13T05:20:43.941Z,15.70
2018-06-13T05:23:21.226Z,15.70
2018-06-13T05:25:58.477Z,15.70
2018-06-13T05:28:34.499Z,15.50
2018-06-13T05:31:12.672Z,15.40
2018-06-13T05:33:49.350Z,15.20
2018-06-13T05:36:26.828Z,15.20
2018-06-13T05:39:07.689Z,15.20
2018-06-13T05:41:43.800Z,15.30
2018-06-13T05:44:20.217Z,15.20
2018-06-13T05:46:57.527Z,15.20
2018-06-13T05:49:33.842Z,15.30
2018-06-13T05:52:10.146Z,15.50
2018-06-13T05:54:47.618Z,15.50
2018-06-13T05:57:23.516Z,15.50
2018-06-13T05:59:59.564Z,15.50
2018-06-13T06:02:35.466Z,15.60
2018-06-13T06:05:13.213Z,15.60
2018-06-13T06:07:49.327Z,15.60
2018-06-13T06:10:25.157Z,15.70
2018-06-13T06:13:03.288Z,15.70
2018-06-13T06:15:39.801Z,15.90
2018-06-13T06:20:54.629Z,15.80
2018-06-13T06:23:32.166Z,15.90
2018-06-13T06:26:08.780Z,16.00
2018-06-13T06:28:47.060Z,16.00
2018-06-13T06:31:24.107Z,16.10
2018-06-13T06:34:01.828Z,16.00
2018-06-13T06:36:37.554Z,15.90
2018-06-13T06:39:13.833Z,16.10
2018-06-13T06:41:51.228Z,16.20
2018-06-13T06:44:27.522Z,16.20
2018-06-13T06:47:03.368Z,16.20
2018-06-13T06:49:39.583Z,16.30
2018-06-13T06:52:16.404Z,16.40
2018-06-13T06:54:53.541Z,16.40
2018-06-13T06:57:30.400Z,16.60
2018-06-13T07:00:07.518Z,16.50
2018-06-13T07:02:44.242Z,16.70
2018-06-13T07:05:21.869Z,16.70
2018-06-13T07:07:58.287Z,16.90
2018-06-13T07:10:34.987Z,16.90
2018-06-13T07:13:11.724Z,17.10
2018-06-13T07:15:48.729Z,17.20
2018-06-13T07:18:25.809Z,17.40
2018-06-13T07:21:02.948Z,17.50
2018-06-13T07:23:40.499Z,17.40
2018-06-13T07:26:17.148Z,17.60
2018-06-13T07:28:55.665Z,17.80
2018-06-13T07:31:32.942Z,18.00
2018-06-13T07:34:10.407Z,18.20
2018-06-13T07:36:47.491Z,18.40
2018-06-13T07:39:25.085Z,18.80
2018-06-13T07:42:02.899Z,19.00
2018-06-13T07:44:39.690Z,19.00
2018-06-13T07:47:16.549Z,18.60
2018-06-13T07:49:53.140Z,18.40
2018-06-13T07:52:30.716Z,18.40
2018-06-13T07:55:07.649Z,18.50
2018-06-13T07:57:45.200Z,18.30
2018-06-13T08:00:21.868Z,18.30
2018-06-13T08:02:58.532Z,18.30
2018-06-13T08:05:37.268Z,18.10
2018-06-13T08:08:15.453Z,18.00
2018-06-13T08:10:52.066Z,18.20
2018-06-13T08:13:29.814Z,18.50
2018-06-13T08:16:07.585Z,18.90
2018-06-13T08:18:45.263Z,19.40
2018-06-13T08:21:22.308Z,19.50
2018-06-13T08:23:59.284Z,19.60
2018-06-13T08:26:37.390Z,19.70
2018-06-13T08:29:15.375Z,20.10
2018-06-13T08:31:52.178Z,19.90
2018-06-13T08:34:29.646Z,20.20
2018-06-13T08:37:07.377Z,20.60
2018-06-13T08:39:45.572Z,20.60
2018-06-13T08:42:22.485Z,20.40
2018-06-13T08:45:00.496Z,19.90
2018-06-13T08:47:38.141Z,19.60
2018-06-13T08:50:17.276Z,19.30
2018-06-13T08:52:54.051Z,18.80
2018-06-13T08:55:32.274Z,18.60
2018-06-13T08:58:11.023Z,18.60
2018-06-13T09:00:47.592Z,18.60
2018-06-13T09:03:24.468Z,18.80
2018-06-13T09:06:01.415Z,19.00
2018-06-13T09:08:38.497Z,19.10
2018-06-13T09:11:16.328Z,19.20
2018-06-13T09:13:53.796Z,19.30
2018-06-13T09:16:31.602Z,19.40
2018-06-13T09:19:10.477Z,19.10
2018-06-13T09:21:50.150Z,18.90
2018-06-13T09:24:29.477Z,18.80
2018-06-13T09:27:08.712Z,18.50
2018-06-13T09:29:47.460Z,18.40
2018-06-13T09:32:24.069Z,18.30
2018-06-13T09:35:00.686Z,18.30
2018-06-13T09:37:37.113Z,18.30
2018-06-13T09:40:14.696Z,18.20
2018-06-13T09:42:52.789Z,18.30
2018-06-13T09:45:30.549Z,18.30
2018-06-13T09:48:06.941Z,18.20
2018-06-13T09:50:43.611Z,18.40
2018-06-13T09:53:22.228Z,18.40
2018-06-13T09:55:58.788Z,18.60
2018-06-13T09:58:40.862Z,18.80
2018-06-13T10:01:23.796Z,19.00
2018-06-13T10:04:02.313Z,19.30
2018-06-13T10:06:39.880Z,19.90
2018-06-13T10:09:17.863Z,20.40
2018-06-13T10:11:55.712Z,21.00
2018-06-13T10:14:32.098Z,21.50
2018-06-13T10:17:09.354Z,21.60
2018-06-13T10:19:46.269Z,21.50
2018-06-13T10:22:23.608Z,21.60
2018-06-13T10:25:01.278Z,21.80
2018-06-13T10:27:38.575Z,21.80
2018-06-13T10:30:14.816Z,22.00
2018-06-13T10:32:51.364Z,21.80
2018-06-13T10:35:30.093Z,21.80
2018-06-13T10:38:06.331Z,21.60
2018-06-13T10:40:44.153Z,22.00
2018-06-13T10:43:21.616Z,23.10
2018-06-13T10:45:58.849Z,23.90
2018-06-13T10:48:36.590Z,24.00
2018-06-13T10:51:13.487Z,23.60
2018-06-13T10:53:50.971Z,23.60
2018-06-13T10:56:27.221Z,23.70
2018-06-13T10:59:05.418Z,23.40
2018-06-13T11:01:42.586Z,22.90
2018-06-13T11:04:19.392Z,22.40
2018-06-13T11:06:57.168Z,22.00
2018-06-13T11:09:34.136Z,22.00
2018-06-13T11:12:10.279Z,22.10
2018-06-13T11:14:47.461Z,21.90
2018-06-13T11:17:24.536Z,21.80
2018-06-13T11:20:00.843Z,21.90
2018-06-13T11:22:38.554Z,21.90
2018-06-13T11:25:15.269Z,22.10
2018-06-13T11:27:54.204Z,22.60
2018-06-13T11:30:31.389Z,22.80
2018-06-13T11:33:08.869Z,23.00
2018-06-13T11:35:46.290Z,23.20
2018-06-13T11:38:23.283Z,23.40
2018-06-13T11:41:01.601Z,23.10
2018-06-13T11:43:37.880Z,22.90
2018-06-13T11:46:15.427Z,22.70
2018-06-13T11:48:52.048Z,22.70
2018-06-13T11:51:30.506Z,22.70
2018-06-13T11:54:06.880Z,22.80
2018-06-13T11:56:45.137Z,22.90
2018-06-13T11:59:23.574Z,22.80
2018-06-13T12:02:00.176Z,22.70
2018-06-13T12:04:36.738Z,22.40
2018-06-13T12:07:13.188Z,22.00
2018-06-13T12:09:49.662Z,21.80
2018-06-13T12:12:27.677Z,21.70
2018-06-13T12:15:04.517Z,21.80
2018-06-13T12:17:41.838Z,22.00
2018-06-13T12:20:19.737Z,22.30
2018-06-13T12:22:57.285Z,22.00
2018-06-13T12:25:34.704Z,21.80
2018-06-13T12:28:12.839Z,22.00
2018-06-13T12:30:50.315Z,21.80
2018-06-13T12:33:27.932Z,21.20
2018-06-13T12:36:05.998Z,21.10
2018-06-13T12:38:43.169Z,21.00
2018-06-13T12:41:20.358Z,21.10
2018-06-13T12:43:57.214Z,21.30
2018-06-13T12:46:35.303Z,21.40
2018-06-13T12:49:12.921Z,21.20
2018-06-13T12:51:49.065Z,20.80
2018-06-13T12:54:25.984Z,20.90
2018-06-13T12:57:04.621Z,21.10
2018-06-13T12:59:42.016Z,21.00
2018-06-13T13:02:19.017Z,21.00
2018-06-13T13:04:55.714Z,21.30
2018-06-13T13:07:33.540Z,21.30
2018-06-13T13:10:09.583Z,21.10
2018-06-13T13:12:46.817Z,20.80
2018-06-13T13:15:23.479Z,20.60
2018-06-13T13:18:00.427Z,20.60
2018-06-13T13:20:37.579Z,20.50
2018-06-13T13:23:15.544Z,20.90
2018-06-13T13:25:52.754Z,21.00
2018-06-13T13:28:30.704Z,21.00
2018-06-13T13:31:06.949Z,21.20
2018-06-13T13:33:44.084Z,21.80
2018-06-13T13:36:21.636Z,21.90
2018-06-13T13:38:59.521Z,22.00
2018-06-13T13:41:35.909Z,21.80
2018-06-13T13:44:13.492Z,21.40
2018-06-13T13:46:50.725Z,21.30
2018-06-13T13:49:28.089Z,21.50
2018-06-13T13:52:06.268Z,21.60
2018-06-13T13:54:43.874Z,21.50
2018-06-13T13:57:20.804Z,21.60
2018-06-13T13:59:58.685Z,21.40
2018-06-13T14:02:35.841Z,21.30
2018-06-13T14:05:12.540Z,21.10
2018-06-13T14:07:50.763Z,21.00
2018-06-13T14:10:28.229Z,20.90
2018-06-13T14:13:05.767Z,20.60
2018-06-13T14:18:20.047Z,20.90
2018-06-13T14:20:57.165Z,20.90
2018-06-13T14:23:33.619Z,21.00
2018-06-13T14:26:10.532Z,21.00
2018-06-13T14:28:46.360Z,21.10
2018-06-13T14:31:23.959Z,21.00
2018-06-13T14:34:00.444Z,20.80
2018-06-13T14:36:37.936Z,20.60
2018-06-13T14:39:14.215Z,20.40
2018-06-13T14:41:51.057Z,20.20
2018-06-13T14:44:28.825Z,20.10
2018-06-13T14:47:05.937Z,20.20
2018-06-13T14:49:42.916Z,20.40
2018-06-13T14:52:20.012Z,20.70
2018-06-13T14:54:58.039Z,20.90
2018-06-13T14:57:35.809Z,21.00
2018-06-13T15:00:13.592Z,21.10
2018-06-13T15:02:52.152Z,21.00
2018-06-13T15:05:29.761Z,21.00
2018-06-13T15:08:06.456Z,20.70
2018-06-13T15:10:44.216Z,20.40
2018-06-13T15:13:22.159Z,20.30
2018-06-13T15:15:59.222Z,20.30
2018-06-13T15:18:35.523Z,20.20
2018-06-13T15:21:13.553Z,20.00
2018-06-13T15:23:51.085Z,19.90
2018-06-13T15:26:27.712Z,19.60
2018-06-13T15:29:05.293Z,19.30
2018-06-13T15:31:42.313Z,19.20
2018-06-13T15:34:20.281Z,19.20
2018-06-13T15:36:56.214Z,19.30
2018-06-13T15:39:33.961Z,19.40
2018-06-13T15:42:10.681Z,19.60
2018-06-13T15:44:49.060Z,19.50
2018-06-13T15:47:26.463Z,19.50
2018-06-13T15:50:03.454Z,19.50
2018-06-13T15:52:47.558Z,19.30
2018-06-13T15:55:24.785Z,19.20
2018-06-13T16:00:37.955Z,18.90
2018-06-13T16:03:16.185Z,18.90
2018-06-13T16:05:52.695Z,18.70
2018-06-13T16:08:29.212Z,18.70
2018-06-13T16:11:05.933Z,18.50
2018-06-13T16:13:42.420Z,18.40
2018-06-13T16:16:21.163Z,18.40
2018-06-13T16:18:57.778Z,18.40
2018-06-13T16:21:33.781Z,18.50
2018-06-13T16:24:11.912Z,18.50
2018-06-13T16:26:49.629Z,18.60
2018-06-13T16:29:26.415Z,18.50
2018-06-13T16:32:03.396Z,18.40
2018-06-13T16:34:41.654Z,18.50
2018-06-13T16:37:18.505Z,18.30
2018-06-13T16:39:55.479Z,18.00
2018-06-13T16:42:33.050Z,17.80
2018-06-13T16:45:10.584Z,17.80
2018-06-13T16:47:47.608Z,17.90
2018-06-13T16:50:41.758Z,17.90
2018-06-13T16:53:35.472Z,17.90
2018-06-13T16:56:12.019Z,17.90
2018-06-13T16:58:48.771Z,17.90
2018-06-13T17:01:25.358Z,17.80
2018-06-13T17:04:02.877Z,17.80
2018-06-13T17:06:39.420Z,17.80
2018-06-13T17:09:15.370Z,17.90
2018-06-13T17:11:52.900Z,17.80
2018-06-13T17:14:30.077Z,17.60
2018-06-13T17:17:07.773Z,17.50
2018-06-13T17:19:44.933Z,17.30
2018-06-13T17:22:21.010Z,17.30
2018-06-13T17:24:57.081Z,17.30
2018-06-13T17:27:33.443Z,17.20
2018-06-13T17:30:11.338Z,17.30
2018-06-13T17:35:26.295Z,17.30
2018-06-13T17:38:04.399Z,17.20
2018-06-13T17:40:41.429Z,17.20
2018-06-13T17:43:17.606Z,17.10
2018-06-13T17:45:55.109Z,17.10
2018-06-13T17:48:31.961Z,17.00
2018-06-13T17:51:09.453Z,16.70
2018-06-13T17:53:47.238Z,16.50
2018-06-13T17:56:24.766Z,16.50
2018-06-13T17:59:00.440Z,16.40
2018-06-13T18:01:38.261Z,16.30
2018-06-13T18:04:15.671Z,16.30
2018-06-13T18:06:52.401Z,16.30
2018-06-13T18:09:28.286Z,16.20
2018-06-13T18:12:07.025Z,16.20
2018-06-13T18:14:43.120Z,16.20
2018-06-13T18:17:19.158Z,16.20
2018-06-13T18:19:55.119Z,16.20
2018-06-13T18:22:31.076Z,16.20
2018-06-13T18:25:07.826Z,16.30
2018-06-13T18:27:44.477Z,16.20
2018-06-13T18:30:21.123Z,16.20
2018-06-13T18:32:58.979Z,16.10
2018-06-13T18:35:37.373Z,16.10
2018-06-13T18:38:14.294Z,16.10
2018-06-13T18:40:51.238Z,16.10
2018-06-13T18:43:27.946Z,16.10
2018-06-13T18:46:06.066Z,16.10
2018-06-13T18:48:42.175Z,16.00
2018-06-13T18:51:19.567Z,16.00
2018-06-13T18:53:56.516Z,16.00
2018-06-13T18:56:33.720Z,16.00
2018-06-13T18:59:09.719Z,16.10
2018-06-13T19:01:46.115Z,16.00
2018-06-13T19:04:22.984Z,16.00
2018-06-13T19:06:59.470Z,15.90
2018-06-13T19:09:37.912Z,15.90
2018-06-13T19:12:14.681Z,15.80
2018-06-13T19:14:52.349Z,15.80
2018-06-13T19:17:28.893Z,15.80
2018-06-13T19:20:05.225Z,15.90
2018-06-13T19:22:42.913Z,15.80
2018-06-13T19:25:20.100Z,15.90
2018-06-13T19:27:57.484Z,15.80
2018-06-13T19:30:33.867Z,15.80
2018-06-13T19:33:10.897Z,15.70
2018-06-13T19:35:47.518Z,15.70
2018-06-13T19:38:24.012Z,15.70
2018-06-13T19:41:00.257Z,15.70
2018-06-13T19:43:38.684Z,15.60
2018-06-13T19:46:15.576Z,15.60
2018-06-13T19:48:53.578Z,15.70
2018-06-13T19:51:30.360Z,15.70
2018-06-13T19:54:12.296Z,15.60
2018-06-13T19:56:49.323Z,15.60
2018-06-13T19:59:25.208Z,15.60
2018-06-13T20:02:01.849Z,15.60
2018-06-13T20:04:42.947Z,15.60
2018-06-13T20:07:20.530Z,15.60
2018-06-13T20:09:57.112Z,15.50
2018-06-13T20:12:45.362Z,15.50
2018-06-13T20:15:27.535Z,15.40
2018-06-13T20:18:11.339Z,15.50
2018-06-13T20:20:49.155Z,15.50
2018-06-13T20:23:25.387Z,15.50
2018-06-13T20:26:07.297Z,15.50
2018-06-13T20:28:48.434Z,15.50
2018-06-13T20:31:28.999Z,15.50
2018-06-13T20:34:07.355Z,15.50
2018-06-13T20:36:43.936Z,15.50
2018-06-13T20:39:20.565Z,15.50
2018-06-13T20:41:56.132Z,15.50
2018-06-13T20:44:31.767Z,15.50
2018-06-13T20:47:09.110Z,15.40
2018-06-13T20:49:45.709Z,15.50
2018-06-13T20:52:29.568Z,15.50
2018-06-13T20:55:06.457Z,15.50
2018-06-13T20:57:42.738Z,15.50
2018-06-13T21:00:19.260Z,15.40
2018-06-13T21:02:56.737Z,15.40
2018-06-13T21:05:32.811Z,15.30
2018-06-13T21:08:10.797Z,15.40
2018-06-13T21:10:48.844Z,15.40
2018-06-13T21:13:26.576Z,15.40
2018-06-13T21:16:02.874Z,15.40
2018-06-13T21:18:38.953Z,15.30
2018-06-13T21:21:16.424Z,15.40
2018-06-13T21:23:53.486Z,15.40
2018-06-13T21:26:29.808Z,15.30
2018-06-13T21:29:07.301Z,15.30
2018-06-13T21:31:44.054Z,15.30
2018-06-13T21:34:21.054Z,15.30
2018-06-13T21:36:57.692Z,15.30
2018-06-13T21:39:35.345Z,15.30
2018-06-13T21:42:11.486Z,15.20
2018-06-13T21:44:49.037Z,15.30
2018-06-13T21:47:26.264Z,15.30
2018-06-13T21:50:03.897Z,15.30
2018-06-13T21:55:16.580Z,15.30
2018-06-13T21:57:53.161Z,15.30
2018-06-13T22:00:29.278Z,15.40
2018-06-13T22:03:07.799Z,15.40
2018-06-13T22:05:44.038Z,15.40
2018-06-13T22:08:19.934Z,15.40
2018-06-13T22:10:57.258Z,15.40
2018-06-13T22:13:33.616Z,15.40
2018-06-13T22:16:10.644Z,15.40
2018-06-13T22:18:47.240Z,15.40
2018-06-13T22:21:23.005Z,15.40
2018-06-13T22:24:01.100Z,15.30
2018-06-13T22:26:38.934Z,15.30
2018-06-13T22:29:15.162Z,15.20
2018-06-13T22:31:51.826Z,15.30
2018-06-13T22:34:29.201Z,15.30
2018-06-13T22:37:05.958Z,15.30
2018-06-13T22:39:42.603Z,15.40
2018-06-13T22:42:20.397Z,15.30
2018-06-13T22:44:57.658Z,15.30
2018-06-13T22:47:34.008Z,15.30
2018-06-13T22:50:10.376Z,15.30
2018-06-13T22:52:46.270Z,15.30
2018-06-13T22:55:22.199Z,15.40
2018-06-13T22:57:58.873Z,15.40
2018-06-13T23:00:58.386Z,15.40
2018-06-13T23:03:35.354Z,15.40
2018-06-13T23:06:12.925Z,15.40
2018-06-13T23:08:49.304Z,15.40
2018-06-13T23:11:25.007Z,15.30
2018-06-13T23:16:39.328Z,15.40
2018-06-13T23:19:16.838Z,15.30
2018-06-13T23:21:54.830Z,15.40
2018-06-13T23:24:32.030Z,15.40
2018-06-13T23:27:08.375Z,15.40
2018-06-13T23:29:44.405Z,15.40
2018-06-13T23:32:20.284Z,15.30
2018-06-13T23:34:58.114Z,15.30
2018-06-13T23:37:35.549Z,15.30
2018-06-13T23:40:12.156Z,15.30
2018-06-13T23:42:48.284Z,15.30
2018-06-13T23:45:25.129Z,15.30
2018-06-13T23:48:01.125Z,15.30
2018-06-13T23:50:37.644Z,15.30
2018-06-13T23:53:13.568Z,15.40
2018-06-13T23:55:51.462Z,15.40
2018-06-13T23:58:28.055Z,15.40
